ADDS TAF Board (Experimental) INFO

IDs: Format: Expanded Condensed

Updated at: 1934 UTC 17 Sep 2014

KLAS - Las Vegas/McCarran I, NV, US

Issued at 1729 UTC 17 Sep 2014
Time1856Z17/20Z17/21Z17/22Z17/23Z18/00Z18/01Z18/02Z18/03Z18/04Z18/05Z18/06Z18/07Z18/08Z
TypeOBSPRVLPRVLPRVLPRVLPRVLPRVLPRVLPRVLPRVLPRVLPRVLPRVLPRVL
VIS10>6>6>6>6>6>6>6>6>6>6>6>6>6
CIG--150150150150150150150150150150------
CoverFEWBKNBKNBKNBKNBKNBKNBKNBKNBKNBKNSCTSCTSCT
FltCat--VFRVFRVFRVFRVFRVFRVFRVFRVFRVFRVFRVFRVFR
WX----------------------------
WDirVRB120120120120120120170170170170200200200
WSpd077777710101010666
WGst----------------------------
R01/19
XWndVRB-7-7-7-7-7-7-6-6-6-6-1-1-1
HWndVRB-1-1-1-1-1-1-8-8-8-8-6-6-6
R07/25
XWndVRB-3-3-3-3-3-3-10-10-10-10-6-6-6
HWndVRB6666662222-2-2-2
Raw TAF
KLAS 171729Z 1718/1818 VRB06KT P6SM FEW100 SCT250
  FM172000 12007KT P6SM SCT080 BKN150
  FM180200 17010KT P6SM SCT080 BKN150
  FM180600 20006KT P6SM SCT150


Raw METAR
KLAS 171856Z 00000KT 10SM FEW110 FEW250 32/14 A2984 RMK AO2 SLP077 T03220139

TAF Board Legend

Hazard VFR MVFR IFR LIFR
Visibility (sm) >5 3≤X≤5 1≤X<3 <1
Ceiling (100 ft) >30 10≤X≤30 5≤X<10 <5
Wind Speed (kt) <10 10≤X<20 20≤X<30 ≥30
Wind Gust (kt) <15 15≤X<25 25≤X<35 ≥35
Weather No Wx Reported VCTS,-TS,-FZRA TS,FZRA +TS,+FZRA


Page loaded:  19:34 UTC  |   12:34 PM Pacific  |   01:34 PM Mountain  |   02:34 PM Central  |   03:34 PM Eastern

 

ADVISORIES

FORECASTS

FORECASTS

OBSERVATIONS

USER TOOLS

ABOUT US